• Join FlightAware (Why Join?)
  • Login
  • US Flag 
11:27AM EDT


 

Airport Tracker/Info


-or-


 

Live Flight TrackerFlight Track Log ✈ UPS328 ✈ 27-Aug-2013 ✈ KSDF - TJSJ / SJU

Flight Track Log - Related Links

Times and Time Zones

All times are in EDT time to prevent confusion due to time zone crossing. See the UPS328 flight status page for this flight to view local times or setup timezone preferences in your user account.

Time Position Orientation Groundspeed Altitude Reporting Facility
EDT Latitude Longitude Course Direction KTS MPH feet Rate Location/Type
03:30PM 38.1870 -85.7490 344° North 172 198 1,200  Level FlightAware
03:31PM 38.1970 -85.7520 347° North 175 201 1,800 2,400 Climbing FlightAware
03:31PM 38.2080 -85.7570 340° North 184 212 2,300 1,680 Climbing FlightAware
03:31PM 38.2220 -85.7670 331° Northwest 208 239 2,700 1,440 Climbing FlightAware
03:31PM 38.2370 -85.7780 330° Northwest 234 269 3,100 1,320 Climbing FlightAware
03:32PM 38.2560 -85.7890 336° Northwest 265 305 3,500 1,680 Climbing FlightAware
03:32PM 38.2630 -85.7900 354° North 268 308 3,800 3,240 Climbing FlightAware
03:32PM 38.2940 -85.7730 23° Northeast 277 319 5,300 3,240 Climbing FlightAware
03:32PM 38.3010 -85.7630 48° Northeast 279 321 5,700 3,180 Climbing FlightAware
03:33PM 38.3140 -85.7360 58° Northeast 283 326 6,800 3,180 Climbing FlightAware
03:33PM 38.3200 -85.7170 68° East 292 336 7,400 2,700 Climbing FlightAware
03:33PM 38.3210 -85.7030 85° East 297 342 7,700 2,580 Climbing FlightAware
03:33PM 38.3190 -85.6890 100° East 299 344 8,100 3,000 Climbing FlightAware
03:33PM 38.3120 -85.6700 115° Southeast 300 345 8,700 3,000 Climbing FlightAware
03:33PM 38.3050 -85.6600 132° Southeast 300 345 9,100 2,340 Climbing FlightAware
03:34PM 38.2630 -85.6160 141° Southeast 326 375 10,500 1,800 Climbing FlightAware
03:35PM 38.2220 -85.5740 141° Southeast 363 418 11,200 1,260 Climbing FlightAware
03:35PM 38.1790 -85.5270 139° Southeast 397 457 11,900 1,980 Climbing FlightAware
03:36PM 38.1210 -85.4580 137° Southeast 408 470 13,700 2,460 Climbing FlightAware
03:36PM 38.0720 -85.3980 136° Southeast 420 483 15,100 2,100 Climbing FlightAware
03:37PM 38.0230 -85.3390 137° Southeast 432 497 16,200 1,920 Climbing FlightAware
03:38PM 37.9590 -85.2630 137° Southeast 445 512 17,700 1,860 Climbing FlightAware
03:38PM 37.9070 -85.2000 136° Southeast 457 526 18,700 1,800 Climbing FlightAware
03:39PM 37.8550 -85.1360 136° Southeast 465 535 19,800 1,740 Climbing FlightAware
03:40PM 37.7950 -85.0660 137° Southeast 473 544 20,800 1,680 Climbing FlightAware
03:40PM 37.7380 -84.9970 136° Southeast 483 556 21,800 1,620 Climbing FlightAware
03:41PM 37.6850 -84.9340 137° Southeast 489 563 22,700 1,620 Climbing FlightAware
03:41PM 37.6304 -84.8687 137° Southeast 23,700 1,680 Climbing FlightAware ADS-B
03:42PM 37.5956 -84.8273 137° Southeast 493 567 24,200 1,500 Climbing FlightAware ADS-B
03:42PM 37.5450 -84.7671 137° Southeast 500 575 25,000 1,440 Climbing FlightAware ADS-B
03:43PM 37.4940 -84.7068 137° Southeast 502 578 25,700 1,260 Climbing FlightAware ADS-B
03:43PM 37.4470 -84.6510 137° Southeast 505 581 26,300 780 Climbing FlightAware
03:44PM 37.3890 -84.5810 136° Southeast 505 581 26,600 1,740 Climbing FlightAware
03:44PM 37.3555 -84.5431 138° Southeast 506 582 27,800 2,700 Climbing FlightAware ADS-B
03:44PM 37.3045 -84.4831 137° Southeast 503 579 28,600 1,500 Climbing FlightAware ADS-B
03:45PM 37.2258 -84.3905 137° Southeast 500 575 29,800 1,380 Climbing FlightAware ADS-B
03:46PM 37.1385 -84.2886 137° Southeast 498 573 30,900 1,260 Climbing FlightAware ADS-B
03:47PM 37.0871 -84.2286 137° Southeast 497 572 31,600 1,320 Climbing FlightAware ADS-B
03:47PM 37.0362 -84.1694 137° Southeast 494 568 32,300 1,020 Climbing FlightAware ADS-B
03:48PM 36.9522 -84.0720 137° Southeast 495 570 33,000 480 Climbing FlightAware ADS-B
03:48PM 36.9002 -84.0119 137° Southeast 495 570 33,000  Level FlightAware ADS-B
03:49PM 36.8498 -83.9537 137° Southeast 493 567 33,000  Level FlightAware ADS-B
03:49PM 36.7995 -83.8957 137° Southeast 491 565 33,000  Level FlightAware ADS-B
03:50PM 36.7481 -83.8368 137° Southeast 488 562 33,000  Level FlightAware ADS-B
03:50PM 36.6955 -83.7765 137° Southeast 490 564 33,000  Level FlightAware ADS-B
03:51PM 36.6443 -83.7177 137° Southeast 492 566 33,000  Level FlightAware ADS-B
03:52PM 36.5941 -83.6601 137° Southeast 486 559 33,000  Level FlightAware ADS-B
03:52PM 36.5448 -83.6037 137° Southeast 482 555 33,000  Level FlightAware ADS-B
03:53PM 36.4947 -83.5467 138° Southeast 483 556 33,000  Level FlightAware ADS-B
03:53PM 36.4450 -83.4901 137° Southeast 487 560 33,000  Level FlightAware ADS-B
03:54PM 36.3938 -83.4321 138° Southeast 490 564 33,000  Level FlightAware ADS-B
03:54PM 36.3209 -83.3495 138° Southeast 491 565 33,000  Level FlightAware ADS-B
03:55PM 36.2656 -83.2870 138° Southeast 486 559 33,000  Level FlightAware ADS-B
03:55PM 36.2077 -83.2222 138° Southeast 486 559 33,000  Level FlightAware ADS-B
03:56PM 36.1819 -83.1955 140° Southeast 486 559 33,000  Level FlightAware ADS-B
03:56PM 36.1286 -83.1420 141° Southeast 482 555 33,000  Level FlightAware ADS-B
03:57PM 36.0770 -83.0902 141° Southeast 476 548 33,000  Level FlightAware ADS-B
03:57PM 36.0244 -83.0371 141° Southeast 478 550 33,000  Level FlightAware ADS-B
03:58PM 35.9728 -82.9851 141° Southeast 481 554 33,000  Level FlightAware ADS-B
03:58PM 35.9195 -82.9311 141° Southeast 476 548 33,000  Level FlightAware ADS-B
03:59PM 35.8602 -82.8713 141° Southeast 470 541 33,000  Level FlightAware ADS-B
03:59PM 35.8042 -82.8149 141° Southeast 467 537 33,000  Level FlightAware ADS-B
04:00PM 35.7495 -82.7599 141° Southeast 471 542 33,000  Level FlightAware ADS-B
04:00PM 35.6966 -82.7069 141° Southeast 475 547 33,000  Level FlightAware ADS-B
04:01PM 35.6443 -82.6546 141° Southeast 476 548 33,000  Level FlightAware ADS-B
04:01PM 35.5917 -82.6021 141° Southeast 474 545 33,000  Level FlightAware ADS-B
04:02PM 35.5370 -82.5475 141° Southeast 472 543 33,000  Level FlightAware ADS-B
04:02PM 35.4844 -82.4952 141° Southeast 470 541 33,000  Level FlightAware ADS-B
04:03PM 35.4339 -82.4450 141° Southeast 470 541 33,000  Level FlightAware ADS-B
04:03PM 35.3818 -82.3935 141° Southeast 474 545 33,000  Level FlightAware ADS-B
04:04PM 35.3302 -82.3426 141° Southeast 473 544 33,000  Level FlightAware ADS-B
04:04PM 35.2790 -82.2918 141° Southeast 472 543 33,000  Level FlightAware ADS-B
04:05PM 35.2263 -82.2397 141° Southeast 469 540 33,000  Level FlightAware ADS-B
04:06PM 35.1716 -82.1857 141° Southeast 467 537 33,000  Level FlightAware ADS-B
04:06PM 35.1209 -82.1358 141° Southeast 469 540 33,000  Level FlightAware ADS-B
04:07PM 35.0658 -82.0819 141° Southeast 469 540 33,000  Level FlightAware ADS-B
04:07PM 35.0134 -82.0304 141° Southeast 469 540 33,000  Level FlightAware ADS-B
04:08PM 34.9505 -81.9689 141° Southeast 469 540 33,000  Level FlightAware ADS-B
04:08PM 34.8981 -81.9177 141° Southeast 464 534 33,000  Level FlightAware ADS-B
04:09PM 34.8376 -81.8588 141° Southeast 458 527 33,000  Level FlightAware ADS-B
04:09PM 34.7780 -81.8010 141° Southeast 462 532 33,000  Level FlightAware
04:10PM 34.7324 -81.7564 141° Southeast 462 532 33,000  Level FlightAware ADS-B
04:11PM 34.6580 -81.6850 142° Southeast 464 534 33,000  Level FlightAware
04:11PM 34.6180 -81.6460 141° Southeast 464 534 33,000  Level FlightAware
04:12PM 34.5260 -81.5570 141° Southeast 466 536 33,000  Level FlightAware
04:12PM 34.4730 -81.5060 142° Southeast 466 536 33,000  Level FlightAware
04:13PM 34.4060 -81.4410 141° Southeast 469 540 33,000  Level FlightAware
04:14PM 34.3510 -81.3880 141° Southeast 470 541 33,000  Level FlightAware
04:14PM 34.3020 -81.3130 128° Southeast 462 532 33,000  Level FlightAware
04:15PM 34.2630 -81.2430 124° Southeast 459 528 33,000  Level FlightAware
04:15PM 34.2200 -81.1670 124° Southeast 459 528 33,000  Level FlightAware
04:16PM 34.1810 -81.0970 124° Southeast 459 528 33,000  Level FlightAware
04:17PM 34.1410 -81.0270 125° Southeast 462 532 33,000  Level FlightAware
04:17PM 34.0900 -80.9380 125° Southeast 461 531 33,000  Level FlightAware
04:18PM 34.0470 -80.8620 124° Southeast 460 529 33,000  Level FlightAware
04:18PM 34.0010 -80.7810 124° Southeast 456 525 33,000  Level FlightAware
04:19PM 33.9590 -80.7080 125° Southeast 456 525 33,000  Level FlightAware
04:20PM 33.9110 -80.6230 124° Southeast 461 531 33,000  Level FlightAware
04:21PM 33.8400 -80.5000 125° Southeast 467 537 33,000  Level FlightAware
04:21PM 33.8080 -80.4450 125° Southeast 466 536 33,000  Level FlightAware
04:22PM 33.7650 -80.3690 124° Southeast 464 534 33,000  Level FlightAware
04:22PM 33.7150 -80.2830 125° Southeast 463 533 33,000  Level FlightAware
04:23PM 33.6750 -80.2140 125° Southeast 462 532 33,000  Level FlightAware
04:24PM 33.6280 -80.1330 125° Southeast 464 534 33,000  Level FlightAware
04:24PM 33.5920 -80.0700 124° Southeast 466 536 33,000  Level FlightAware
04:25PM 33.5350 -79.9740 125° Southeast 470 541 33,000  Level FlightAware
04:26PM 33.4800 -79.8780 124° Southeast 473 544 33,000  Level FlightAware
04:26PM 33.4430 -79.8160 126° Southeast 476 548 33,000  Level FlightAware
04:27PM 33.3890 -79.7240 125° Southeast 479 551 33,000  Level FlightAware
04:27PM 33.3510 -79.6590 125° Southeast 483 556 33,000  Level FlightAware
04:28PM 33.3050 -79.5810 125° Southeast 485 558 33,000  Level FlightAware
04:29PM 33.2540 -79.4950 125° Southeast 483 556 33,000  Level FlightAware
04:29PM 33.2090 -79.4200 126° Southeast 478 550 33,000  Level FlightAware
04:30PM 33.1710 -79.3550 125° Southeast 475 547 33,000  Level FlightAware
04:30PM 33.1270 -79.2800 125° Southeast 474 545 33,000  Level FlightAware
04:31PM 33.0770 -79.1970 126° Southeast 477 549 33,000  Level FlightAware
04:31PM 33.0370 -79.1300 125° Southeast 474 545 33,000  Level FlightAware
04:32PM 32.9880 -79.0480 125° Southeast 474 545 33,000  Level FlightAware
04:33PM 32.9510 -78.9860 125° Southeast 477 549 33,000  Level FlightAware
04:33PM 32.9030 -78.9060 126° Southeast 480 552 33,000  Level FlightAware
04:34PM 32.8520 -78.8210 126° Southeast 481 554 33,000  Level FlightAware
04:34PM 32.8120 -78.7560 126° Southeast 482 555 33,000 180 Level FlightAware
04:35PM 32.7730 -78.6910 125° Southeast 484 557 33,200 720 Climbing FlightAware
04:35PM 32.7220 -78.6060 125° Southeast 483 556 33,900 660 Climbing FlightAware
04:36PM 32.6760 -78.5290 125° Southeast 486 559 34,000 60 Climbing FlightAware
04:37PM 32.6300 -78.4540 126° Southeast 482 555 34,000  Level FlightAware
04:37PM 32.5810 -78.3730 126° Southeast 478 550 34,000  Level FlightAware
04:38PM 32.5430 -78.3110 126° Southeast 481 554 34,000  Level FlightAware
04:38PM 32.4970 -78.2350 126° Southeast 482 555 34,000  Level FlightAware
04:39PM 32.5250 -78.2810 306° West 487 560 34,000  Level FlightAware
04:39PM 32.4030 -78.1930 149° Southeast 490 564 34,000  Level FlightAware
04:40PM 32.3160 -78.1800 173° South 486 559 34,000  Level FlightAware
04:41PM 32.2260 -78.1670 173° South 485 558 34,000  Level FlightAware
04:41PM 32.1440 -78.1570 174° South 480 552 34,000  Level FlightAware
04:42PM 32.0930 -78.1490 172° South 482 555 34,000  Level FlightAware
04:42PM 32.0970 -78.1500 348° North 482 555 34,000  Level FlightAware
04:43PM 32.0290 -78.1400 173° South 482 555 34,000  Level FlightAware
04:44PM 31.9620 -78.1300 173° South 482 555 34,000  Level FlightAware
04:44PM 31.8920 -78.1200 173° South 482 555 34,000  Level FlightAware
04:45PM 31.8220 -78.1100 173° South 482 555 34,000  Level FlightAware
04:45PM 31.7560 -78.1010 173° South 482 555 34,000  Level FlightAware
04:46PM 31.6890 -78.0910 173° South 482 555 34,000  Level FlightAware
04:47PM 31.6190 -78.0810 173° South 482 555 34,000  Level FlightAware
04:47PM 31.5510 -78.0710 173° South 482 555 34,000  Level FlightAware
04:48PM 31.4840 -78.0610 173° South 482 555 34,000  Level FlightAware
04:48PM 31.4200 -78.0520 173° South 482 555 34,000  Level FlightAware
04:49PM 31.3520 -78.0420 173° South 482 555 34,000  Level FlightAware
04:50PM 31.2840 -78.0330 174° South 482 555 34,000  Level FlightAware
04:50PM 31.2150 -78.0230 173° South 482 555 34,000  Level FlightAware
04:51PM 31.1470 -78.0130 173° South 482 555 34,000  Level FlightAware
04:52PM 31.0570 -78.0000 173° South 482 555 34,000  Level FlightAware
04:53PM 30.6014 -77.9519 173° South 475 547 34,000  Level Miami Center
04:54PM 30.4556 -77.9336 174° South 480 552 34,000  Level Miami Center
04:55PM 30.3244 -77.9156 173° South 478 550 34,000  Level Miami Center
04:56PM 30.2119 -77.9097 177° South 478 550 34,000  Level Miami Center
04:57PM 30.0786 -77.8892 172° South 472 543 34,000  Level Miami Center
04:58PM 29.9494 -77.8711 173° South 472 543 34,000  Level Miami Center
04:59PM 29.8244 -77.8556 174° South 468 539 34,000  Level Miami Center
05:00PM 29.6953 -77.8353 172° South 468 539 34,000  Level Miami Center
05:01PM 29.5744 -77.8247 176° South 446 513 34,000  Level Miami Center
05:02PM 29.4389 -77.8022 172° South 489 563 34,000  Level Miami Center
05:03PM 29.3139 -77.7914 176° South 467 537 34,000  Level Miami Center
05:05PM 29.0533 -77.7561 173° South 461 531 34,000 -60 Level Miami Center
05:06PM 28.9094 -77.7383 174° South 461 531 33,900  Descending Miami Center
05:07PM 28.7989 -77.7231 173° South 461 531 34,000  Climbing Miami Center
05:08PM 28.6592 -77.7081 175° South 461 531 33,900 -60 Descending Miami Center
05:09PM 28.5383 -77.6881 172° South 469 540 33,900  Level Miami Center
05:10PM 28.4111 -77.6731 174° South 469 540 34,000  Climbing Miami Center
05:11PM 28.2817 -77.6556 173° South 469 540 34,000  Level Miami Center
05:12PM 28.1608 -77.6242 167° South 462 532 34,000  Level Miami Center
05:13PM 28.0525 -77.5644 154° Southeast 449 517 34,000  Level Miami Center
05:14PM 27.9422 -77.4744 144° Southeast 449 517 34,000  Level Miami Center
05:15PM 27.8444 -77.3519 132° Southeast 454 522 34,000  Level Miami Center
05:16PM 27.7614 -77.2458 131° Southeast 453 521 34,000  Level Miami Center
05:17PM 27.6781 -77.1400 132° Southeast 453 521 34,000  Level Miami Center
05:18PM 27.5906 -77.0250 131° Southeast 470 541 34,000  Level Miami Center
05:19PM 27.5050 -76.9219 133° Southeast 455 524 34,000  Level Miami Center
05:20PM 27.4214 -76.8211 133° Southeast 455 524 34,000  Level Miami Center
05:21PM 27.3356 -76.7114 131° Southeast 456 525 34,000  Level Miami Center
05:22PM 27.2478 -76.6017 132° Southeast 456 525 34,000  Level Miami Center
05:23PM 27.1661 -76.5036 133° Southeast 454 522 34,000  Level Miami Center
05:24PM 27.0781 -76.3919 132° Southeast 460 529 34,000  Level Miami Center
05:25PM 26.9919 -76.2828 132° Southeast 460 529 34,000  Level Miami Center
05:26PM 26.9058 -76.1806 133° Southeast 455 524 34,000 -300 Level Miami Center
05:27PM 26.8197 -76.0764 133° Southeast 455 524 33,500 -540 Descending Miami Center
05:28PM 26.7378 -75.9722 131° Southeast 448 516 33,000 -300 Descending Miami Center
05:29PM 26.6514 -75.8683 133° Southeast 458 527 33,000  Level Miami Center
05:30PM 26.5628 -75.7597 132° Southeast 453 521 33,000  Level Miami Center
05:31PM 26.4764 -75.6561 133° Southeast 453 521 33,000  Level Miami Center
05:32PM 26.3856 -75.5481 133° Southeast 461 531 33,000  Level Miami Center
05:33PM 26.3053 -75.4469 132° Southeast 464 534 33,000  Level Miami Center
05:34PM 26.2122 -75.3369 133° Southeast 464 534 33,000  Level Miami Center
05:35PM 26.1275 -75.2317 132° Southeast 467 537 33,000  Level Miami Center
05:36PM 26.0406 -75.1286 133° Southeast 462 532 33,000  Level Miami Center
05:37PM 25.9728 -75.0442 132° Southeast 462 532 33,000  Level Miami Center
05:38PM 25.8561 -74.9119 134° Southeast 474 545 33,000  Level Miami Center
05:39PM 25.7753 -74.8094 131° Southeast 474 545 33,000  Level Miami Center
05:40PM 25.6861 -74.7164 137° Southeast 468 539 33,000  Level Miami Center
05:41PM 25.5989 -74.6097 132° Southeast 468 539 33,000  Level Miami Center
05:42PM 25.5094 -74.5056 134° Southeast 475 547 33,000  Level Miami Center
05:43PM 25.4242 -74.4058 133° Southeast 460 529 33,000  Level Miami Center
05:44PM 25.3283 -74.2883 132° Southeast 474 545 33,000  Level Miami Center
05:46PM 25.1383 -74.0675 134° Southeast 474 545 33,000  Level Miami Center
05:47PM 25.0506 -73.9639 133° Southeast 474 545 33,000  Level Miami Center
05:48PM 24.9586 -73.8583 134° Southeast 474 545 33,000  Level Miami Center
05:49PM 24.8728 -73.7531 132° Southeast 469 540 33,000  Level Miami Center
05:50PM 24.7808 -73.6500 134° Southeast 469 540 33,000  Level Miami Center
05:51PM 24.6950 -73.5469 133° Southeast 470 541 33,000  Level Miami Center
05:52PM 24.6028 -73.4422 134° Southeast 470 541 33,000  Level Miami Center
05:53PM 24.5106 -73.3375 134° Southeast 470 541 33,000  Level Miami Center
05:54PM 24.4225 -73.2372 134° Southeast 470 541 33,000  Level Miami Center
05:55PM 24.3322 -73.1328 133° Southeast 470 541 33,000  Level Miami Center
05:56PM 24.2417 -73.0283 134° Southeast 470 541 33,000  Level Miami Center
05:57PM 24.1533 -72.9264 134° Southeast 470 541 33,000  Level Miami Center
05:58PM 24.0589 -72.8247 135° Southeast 470 541 33,000  Level Miami Center
05:59PM 23.9831 -72.7247 130° Southeast 464 534 33,000  Level Miami Center
06:00PM 23.8817 -72.6192 136° Southeast 468 539 33,000  Level Miami Center
06:01PM 23.7958 -72.5381 139° Southeast 463 533 33,000  Level Miami Center
06:02PM 23.6967 -72.4325 136° Southeast 457 526 33,000  Level Miami Center
06:03PM 23.5961 -72.3500 143° Southeast 452 520 33,000  Level Miami Center
06:04PM 23.5014 -72.2539 137° Southeast 457 526 33,000  Level Miami Center
06:05PM 23.4006 -72.1669 142° Southeast 457 526 33,000  Level Miami Center
06:06PM 23.3036 -72.0778 140° Southeast 462 532 33,000  Level Miami Center
06:07PM 23.2028 -71.9911 142° Southeast 462 532 33,000  Level Miami Center
06:08PM 23.1039 -71.9003 140° Southeast 462 532 33,000  Level Miami Center
06:09PM 23.0069 -71.8136 141° Southeast 462 532 33,000  Level Miami Center
06:10PM 22.9039 -71.7300 143° Southeast 462 532 33,000  Level Miami Center
06:11PM 22.8011 -71.6506 145° Southeast 457 526 33,000  Level Miami Center
06:12PM 22.7000 -71.5647 142° Southeast 457 526 33,000  Level Miami Center
06:13PM 22.5989 -71.4767 141° Southeast 462 532 33,000  Level Miami Center
06:14PM 22.4958 -71.3978 145° Southeast 462 532 33,000  Level Miami Center
06:15PM 22.3967 -71.3122 141° Southeast 462 532 33,000  Level Miami Center
06:16PM 22.2953 -71.2200 140° Southeast 462 532 33,000  Level Miami Center
06:17PM 22.2097 -71.1139 131° Southeast 462 532 33,000  Level Miami Center
06:18PM 22.1267 -71.0103 131° Southeast 462 532 33,000  Level Miami Center
06:19PM 22.0392 -70.9044 132° Southeast 462 532 33,000  Level Miami Center
06:20PM 21.9514 -70.7967 131° Southeast 473 544 33,000  Level Miami Center
06:21PM 21.8658 -70.6931 132° Southeast 473 544 33,000  Level Miami Center
06:22PM 21.7761 -70.5881 133° Southeast 473 544 33,000  Level Miami Center
06:23PM 21.7100 -70.5042 130° Southeast 473 544 33,000  Level Miami Center
06:24PM 21.6114 -70.3906 133° Southeast 473 544 33,000  Level Miami Center
06:25PM 21.5278 -70.2856 131° Southeast 473 544 33,000  Level Miami Center
06:26PM 21.4356 -70.1786 133° Southeast 481 554 33,000  Level Miami Center
06:27PM 21.3475 -70.0739 132° Southeast 481 554 33,000  Level Miami Center
06:28PM 21.2617 -69.9694 131° Southeast 476 548 33,000  Level Miami Center
06:29PM 21.1736 -69.8650 132° Southeast 476 548 33,000  Level Miami Center
06:30PM 21.0856 -69.7608 132° Southeast 476 548 33,000  Level Miami Center
06:31PM 20.9972 -69.6567 132° Southeast 476 548 33,000  Level Miami Center
06:32PM 20.9092 -69.5525 132° Southeast 476 548 33,000  Level Miami Center
06:38PM 20.3440 -68.8890 132° Southeast 482 555 33,000  Level FlightAware
06:39PM 20.2870 -68.8220 132° Southeast 482 555 33,000  Level FlightAware
06:39PM 20.2300 -68.7570 133° Southeast 481 554 33,000  Level FlightAware
06:40PM 20.1820 -68.7000 132° Southeast 482 555 33,000  Level FlightAware
06:40PM 20.1320 -68.6420 133° Southeast 482 555 33,000  Level FlightAware
06:41PM 20.0720 -68.5730 133° Southeast 482 555 33,000  Level FlightAware
06:42PM 20.0180 -68.5100 132° Southeast 483 556 33,000  Level FlightAware
06:42PM 19.9690 -68.4530 132° Southeast 482 555 33,000  Level FlightAware
06:43PM 19.9130 -68.3870 132° Southeast 482 555 33,000  Level FlightAware
06:43PM 19.8640 -68.3310 133° Southeast 482 555 33,000  Level FlightAware
06:44PM 19.8080 -68.2650 132° Southeast 488 562 33,000  Level FlightAware
06:44PM 19.7570 -68.2070 133° Southeast 498 573 33,000  Level FlightAware
06:45PM 19.7020 -68.1430 132° Southeast 503 579 33,000  Level FlightAware
06:46PM 19.6430 -68.0750 133° Southeast 504 580 33,000  Level FlightAware
06:46PM 19.5870 -68.0120 133° Southeast 502 578 33,000  Level FlightAware
06:47PM 19.5360 -67.9530 133° Southeast 496 571 33,000  Level FlightAware
06:47PM 19.4810 -67.8900 133° Southeast 491 565 33,000  Level FlightAware
06:48PM 19.4290 -67.8300 133° Southeast 488 562 33,000  Level FlightAware
06:49PM 19.3730 -67.7660 133° Southeast 487 560 33,000  Level FlightAware
06:49PM 19.3180 -67.7040 133° Southeast 485 558 33,000  Level FlightAware
06:50PM 19.2690 -67.6400 129° Southeast 486 559 33,000  Level FlightAware
06:50PM 19.2270 -67.5680 122° Southeast 485 558 33,000 -480 Level FlightAware
06:51PM 19.1900 -67.4930 118° Southeast 481 554 32,500 -1,980 Descending FlightAware
06:51PM 19.1580 -67.4260 117° Southeast 488 562 30,800 -3,480 Descending FlightAware
06:52PM 19.1190 -67.3480 118° Southeast 495 570 28,500 -3,600 Descending FlightAware
06:53PM 19.0850 -67.2790 118° Southeast 497 572 26,700 -3,180 Descending FlightAware
06:53PM 19.0490 -67.2040 117° Southeast 477 549 25,000 -3,060 Descending FlightAware
06:54PM 19.0110 -67.1270 118° Southeast 461 531 23,000 -3,420 Descending FlightAware
06:54PM 18.9870 -67.0800 118° Southeast 442 509 21,500 -3,540 Descending FlightAware
06:55PM 18.9520 -67.0090 118° Southeast 421 484 19,400 -3,300 Descending FlightAware
06:56PM 18.9180 -66.9390 117° Southeast 415 478 17,300 -3,000 Descending FlightAware
06:56PM 18.8910 -66.8830 117° Southeast 406 467 15,900 -2,580 Descending FlightAware
06:57PM 18.8590 -66.8200 118° Southeast 393 452 14,400 -2,520 Descending FlightAware
06:57PM 18.8290 -66.7590 117° Southeast 382 440 12,900 -2,520 Descending FlightAware
06:58PM 18.8040 -66.7080 117° Southeast 377 434 11,600 -1,920 Descending FlightAware
06:58PM 18.7750 -66.6510 118° Southeast 351 404 10,800 -1,080 Descending FlightAware
06:59PM 18.7480 -66.5990 119° Southeast 321 369 10,300 -780 Descending FlightAware
06:59PM 18.7200 -66.5700 136° Southeast 291 335 10,000 -1,260 Descending FlightAware
07:00PM 18.7000 -66.5500 137° Southeast 286 329 9,300 -1,920 Descending FlightAware
07:00PM 18.6820 -66.5310 135° Southeast 282 325 8,700 -1,080 Descending FlightAware
07:01PM 18.6580 -66.5070 137° Southeast 265 305 8,500 -600 Descending FlightAware
07:01PM 18.6430 -66.4910 135° Southeast 252 290 8,300 -1,080 Descending FlightAware
07:01PM 18.6210 -66.4660 133° Southeast 246 283 7,700 -1,320 Descending FlightAware
07:02PM 18.6070 -66.4520 137° Southeast 244 281 7,300 -780 Descending FlightAware
07:02PM 18.5800 -66.4240 135° Southeast 243 280 7,000 -1,200 Descending FlightAware
07:03PM 18.5620 -66.4050 135° Southeast 234 269 6,200 -1,680 Descending FlightAware
07:03PM 18.5440 -66.3870 137° Southeast 233 268 5,800 -1,020 Descending FlightAware
07:03PM 18.5250 -66.3670 135° Southeast 230 265 5,400 -960 Descending FlightAware
07:04PM 18.5100 -66.3520 137° Southeast 224 258 5,100 -900 Descending FlightAware
07:04PM 18.4950 -66.3360 135° Southeast 213 245 4,800 -780 Descending FlightAware
07:04PM 18.4890 -66.3300 137° Southeast 211 243 4,700 -180 Descending FlightAware
07:05PM 18.4740 -66.3140 135° Southeast 211 243 4,700 -720 Level FlightAware
07:05PM 18.4590 -66.2990 137° Southeast 185 213 4,200 -1,080 Descending FlightAware
07:05PM 18.4470 -66.2870 137° Southeast 181 208 4,000 -720 Descending FlightAware
07:06PM 18.4320 -66.2710 135° Southeast 181 208 3,700 -720 Descending FlightAware
07:06PM 18.4200 -66.2590 137° Southeast 182 209 3,500 -660 Descending FlightAware
07:06PM 18.4160 -66.2540 130° Southeast 182 209 3,400 -540 Descending FlightAware
07:06PM 18.4140 -66.2510 125° Southeast 181 208 3,400 -540 Level FlightAware
07:06PM 18.4120 -66.2440 107° East 181 208 3,300 -660 Descending FlightAware
07:07PM 18.4120 -66.2260 90° East 181 208 3,100 -720 Descending FlightAware
07:07PM 18.4110 -66.2070 93° East 181 208 2,800 -960 Descending FlightAware
07:07PM 18.4110 -66.1880 90° East 182 209 2,400 -1,080 Descending FlightAware
07:08PM 18.4100 -66.1770 95° East 175 201 2,200 -780 Descending FlightAware
07:08PM 18.4100 -66.1610 90° East 164 189 2,000 -720 Descending FlightAware
07:08PM 18.4090 -66.1430 93° East 150 173 1,700 -540 Descending FlightAware
07:09PM 18.4090 -66.1280 90° East 127 146 1,600 -180 Descending FlightAware
07:09PM 18.4080 -66.1160 95° East 126 145 1,600  Level FlightAware
07:09PM 18.4080 -66.1040 90° East 125 144 1,600 -180 Level FlightAware
07:10PM 18.4080 -66.0910 90° East 127 146 1,500 -240 Descending FlightAware
07:10PM 18.4090 -66.0870 75° East 127 146 1,500 -300 Level FlightAware
07:10PM 18.4120 -66.0810 62° Northeast 127 146 1,400 -780 Descending FlightAware
07:10PM 18.4170 -66.0690 66° East 125 144 1,100 -840 Descending FlightAware
07:11PM 18.4190 -66.0630 71° East 124 143 1,000 -720 Descending FlightAware
07:11PM 18.4250 -66.0490 66° East 124 143 700 -720 Descending FlightAware
07:11PM 18.4290 -66.0390 67° East 122 140 500 -600 Descending FlightAware
07:12PM 18.4340 -66.0250 69° East 125 144 300 -600 Descending FlightAware
07:12PM 18.4380 -66.0170 62° Northeast 130 150 100 -300 Descending FlightAware
07:12PM 18.4440 -66.0030 66° East 130 150 100  Level FlightAware